Time;durP1;ratioP1;P1;durP2;ratioP2;P2;SDS_P1;SDS_P2;PMS_P1;PMS_P2;Temp;Humidity;BMP_temperature;BMP_pressure;BME280_temperature;BME280_humidity;BME280_pressure;Samples;Min_cycle;Max_cycle;Signal;HPM_P1;HPM_P2
2021/01/23 00:00:19;;;;;;;2.72;1.85;;;5.00;79.40;;;;;;5079865;28;20532;-62
2021/01/23 00:02:45;;;;;;;4.35;2.25;;;5.00;79.60;;;;;;5079959;28;20036;-62
2021/01/23 00:05:11;;;;;;;3.13;1.98;;;5.00;79.70;;;;;;5079947;28;20036;-62
2021/01/23 00:07:37;;;;;;;5.40;2.50;;;5.00;79.20;;;;;;5079983;28;20032;-62
2021/01/23 00:10:04;;;;;;;3.03;1.95;;;5.00;77.80;;;;;;5079895;28;20032;-62
2021/01/23 00:12:29;;;;;;;4.22;1.88;;;5.00;77.90;;;;;;5079879;28;20040;-62
2021/01/23 00:14:55;;;;;;;5.57;2.50;;;4.90;78.00;;;;;;5079561;28;20040;-62
2021/01/23 00:17:20;;;;;;;2.80;2.05;;;4.90;78.60;;;;;;5079814;28;20032;-61
2021/01/23 00:19:46;;;;;;;4.30;2.30;;;4.90;78.20;;;;;;5079709;28;20549;-62
2021/01/23 00:22:12;;;;;;;3.63;2.10;;;4.90;78.20;;;;;;5079423;28;20114;-62
2021/01/23 00:24:38;;;;;;;2.75;1.70;;;4.90;77.50;;;;;;5079299;28;20815;-62
2021/01/23 00:27:04;;;;;;;3.25;2.00;;;4.90;78.40;;;;;;5074205;28;20028;-62
2021/01/23 00:29:29;;;;;;;4.45;1.60;;;4.80;79.40;;;;;;5079200;28;20058;-63
2021/01/23 00:31:56;;;;;;;2.47;1.80;;;4.80;80.10;;;;;;5079702;28;20040;-62
2021/01/23 00:34:21;;;;;;;3.30;2.33;;;4.80;80.40;;;;;;5078264;28;20876;-62
2021/01/23 00:36:47;;;;;;;2.30;1.90;;;4.80;80.40;;;;;;5079151;28;20040;-62
2021/01/23 00:39:12;;;;;;;2.90;1.80;;;4.90;80.80;;;;;;5079413;28;20032;-62
2021/01/23 00:41:38;;;;;;;2.70;1.80;;;4.90;80.30;;;;;;5078570;28;20044;-62
2021/01/23 00:44:05;;;;;;;1.85;1.75;;;4.90;80.10;;;;;;5079031;28;20032;-61
2021/01/23 00:46:31;;;;;;;3.42;2.40;;;4.90;79.70;;;;;;5079389;28;20057;-61
2021/01/23 00:48:56;;;;;;;4.60;2.15;;;4.90;78.90;;;;;;5079666;28;20094;-62
2021/01/23 00:51:22;;;;;;;4.38;2.42;;;4.90;78.50;;;;;;5077222;28;20925;-62
2021/01/23 00:53:49;;;;;;;4.40;1.80;;;4.90;78.50;;;;;;5077217;28;20032;-63
2021/01/23 00:56:15;;;;;;;5.25;2.50;;;4.80;77.80;;;;;;5077367;28;20463;-62
2021/01/23 00:58:41;;;;;;;3.05;2.00;;;4.80;78.70;;;;;;5078808;28;20032;-62
2021/01/23 01:01:08;;;;;;;2.65;1.95;;;4.70;79.20;;;;;;5077808;28;20032;-62
2021/01/23 01:03:35;;;;;;;3.45;2.50;;;4.70;79.80;;;;;;5079262;28;20105;-62
2021/01/23 01:06:05;;;;;;;6.82;2.50;;;4.70;80.20;;;;;;5076889;28;20051;-62
2021/01/23 01:08:31;;;;;;;2.38;1.90;;;4.70;80.50;;;;;;5078865;28;20028;-62
2021/01/23 01:10:57;;;;;;;5.25;2.40;;;4.80;80.10;;;;;;5077655;28;20036;-62
2021/01/23 01:13:22;;;;;;;3.42;2.58;;;4.80;80.10;;;;;;5078151;28;20034;-62
2021/01/23 01:15:52;;;;;;;4.25;2.30;;;4.80;80.20;;;;;;5079112;28;20032;-62
2021/01/23 01:18:17;;;;;;;3.38;2.60;;;4.80;79.90;;;;;;5078958;28;20028;-62
2021/01/23 01:20:43;;;;;;;3.22;2.30;;;4.80;79.70;;;;;;5078245;28;20145;-62
2021/01/23 01:23:09;;;;;;;4.32;2.50;;;4.90;80.00;;;;;;5078719;28;20032;-63
2021/01/23 01:25:34;;;;;;;3.35;2.53;;;4.90;80.10;;;;;;5078392;28;20028;-62
2021/01/23 01:28:00;;;;;;;2.42;2.10;;;4.90;80.40;;;;;;5078636;28;20472;-62
2021/01/23 01:30:26;;;;;;;4.22;2.60;;;4.90;80.80;;;;;;5077854;28;20032;-62
2021/01/23 01:32:51;;;;;;;4.05;2.47;;;4.90;81.00;;;;;;5078046;28;20133;-62
2021/01/23 01:35:17;;;;;;;2.42;2.00;;;4.90;79.50;;;;;;5076931;28;20032;-63
2021/01/23 01:37:44;;;;;;;3.05;1.90;;;4.90;79.90;;;;;;5078437;28;20062;-59
2021/01/23 01:40:10;;;;;;;3.63;1.95;;;4.90;79.60;;;;;;5078083;28;20131;-59
2021/01/23 01:42:36;;;;;;;2.70;1.80;;;4.90;78.80;;;;;;5074461;28;20056;-60
2021/01/23 01:45:02;;;;;;;3.72;2.28;;;4.90;78.50;;;;;;5063104;28;20025;-59
2021/01/23 01:47:28;;;;;;;4.55;2.45;;;4.80;78.80;;;;;;5074980;28;20027;-60
2021/01/23 01:49:56;;;;;;;4.72;3.13;;;4.80;79.80;;;;;;5077825;28;20354;-60
2021/01/23 01:52:22;;;;;;;6.35;3.08;;;4.80;79.60;;;;;;5076613;28;20036;-60
2021/01/23 01:54:49;;;;;;;6.35;3.30;;;4.90;80.00;;;;;;5076721;28;20085;-60
2021/01/23 01:57:18;;;;;;;4.43;2.75;;;4.90;80.20;;;;;;5077296;28;20035;-60
2021/01/23 01:59:43;;;;;;;3.95;2.63;;;4.90;80.50;;;;;;5078453;28;20028;-60
2021/01/23 02:02:33;;;;;;;2.92;2.10;;;4.90;80.60;;;;;;5077995;28;20434;-59
2021/01/23 02:05:06;;;;;;;4.20;2.63;;;4.90;80.20;;;;;;5077108;28;20110;-60
2021/01/23 02:08:07;;;;;;;5.20;2.90;;;4.90;79.30;;;;;;5077862;28;20072;-60
2021/01/23 02:10:42;;;;;;;6.53;2.90;;;4.90;78.70;;;;;;5078212;28;20416;-60
2021/01/23 02:13:12;;;;;;;6.90;3.35;;;4.80;79.00;;;;;;5077069;28;20477;-60
2021/01/23 02:15:48;;;;;;;6.18;3.63;;;4.80;79.40;;;;;;5077596;28;20059;-60
2021/01/23 02:18:15;;;;;;;8.40;3.92;;;4.80;79.80;;;;;;5077818;28;20101;-60
2021/01/23 02:21:00;;;;;;;4.25;3.20;;;4.80;80.00;;;;;;5077085;28;20046;-60
2021/01/23 02:23:32;;;;;;;6.57;3.30;;;4.80;80.50;;;;;;5077482;28;20071;-60
2021/01/23 02:26:20;;;;;;;7.72;3.53;;;4.80;81.10;;;;;;5077472;28;20036;-59
2021/01/23 02:29:04;;;;;;;6.65;3.67;;;4.80;81.60;;;;;;5078024;28;20059;-60
2021/01/23 02:31:37;;;;;;;5.78;3.53;;;4.80;81.80;;;;;;5077608;28;20040;-60
2021/01/23 02:34:05;;;;;;;5.35;2.70;;;4.90;81.90;;;;;;5076878;28;20036;-59
2021/01/23 02:36:32;;;;;;;5.50;3.03;;;4.90;80.90;;;;;;5076619;28;20036;-60
2021/01/23 02:39:01;;;;;;;4.30;2.17;;;4.90;79.50;;;;;;5077476;28;20032;-60
2021/01/23 02:41:27;;;;;;;3.95;2.67;;;4.90;79.20;;;;;;5076114;28;20046;-60
2021/01/23 02:43:52;;;;;;;3.15;2.42;;;4.90;79.30;;;;;;5077372;28;20032;-59
2021/01/23 02:46:19;;;;;;;6.85;3.10;;;4.90;79.10;;;;;;5077155;28;20028;-59
2021/01/23 02:48:47;;;;;;;3.40;2.33;;;4.90;79.40;;;;;;5076695;28;20028;-60
2021/01/23 02:51:35;;;;;;;3.83;2.28;;;4.90;79.60;;;;;;5076173;28;20059;-60
2021/01/23 02:54:11;;;;;;;4.30;2.72;;;4.90;79.80;;;;;;5057139;28;20047;-60
2021/01/23 02:56:38;;;;;;;3.72;2.78;;;4.90;80.00;;;;;;5055718;28;20041;-60
2021/01/23 02:59:06;;;;;;;5.00;3.10;;;4.90;80.30;;;;;;5077290;28;20579;-60
2021/01/23 03:01:36;;;;;;;6.25;2.95;;;4.90;80.30;;;;;;5077298;28;20118;-60
2021/01/23 03:04:03;;;;;;;6.45;3.30;;;4.90;80.50;;;;;;5076636;28;20039;-60
2021/01/23 03:06:30;;;;;;;6.50;3.50;;;5.00;80.50;;;;;;5081178;28;20028;-60
2021/01/23 03:08:57;;;;;;;9.88;4.25;;;4.90;80.20;;;;;;5068988;28;20455;-60
2021/01/23 03:11:22;;;;;;;5.80;3.22;;;5.00;80.50;;;;;;5049454;28;20229;-60
2021/01/23 03:13:48;;;;;;;3.92;2.90;;;5.00;79.90;;;;;;5079164;28;20566;-60
2021/01/23 03:16:14;;;;;;;3.40;2.25;;;5.00;79.60;;;;;;5078488;28;20216;-59
2021/01/23 03:18:39;;;;;;;5.10;3.45;;;5.00;79.70;;;;;;5077619;28;20823;-60
2021/01/23 03:21:05;;;;;;;4.38;2.45;;;5.00;79.90;;;;;;5078338;28;20032;-60
2021/01/23 03:23:31;;;;;;;3.42;2.28;;;4.90;79.90;;;;;;5080408;28;20060;-60
2021/01/23 03:25:56;;;;;;;3.20;1.80;;;5.00;80.00;;;;;;5079302;28;20166;-58
2021/01/23 03:28:22;;;;;;;3.55;2.20;;;4.90;79.70;;;;;;5080094;28;20028;-60
2021/01/23 03:30:48;;;;;;;2.40;1.80;;;5.00;79.40;;;;;;5080858;28;20016;-60
2021/01/23 03:33:13;;;;;;;7.30;1.60;;;4.90;78.80;;;;;;5079022;28;20032;-60
2021/01/23 03:35:39;;;;;;;3.78;1.85;;;4.90;78.30;;;;;;5077734;28;20035;-60
2021/01/23 03:38:05;;;;;;;3.42;2.00;;;4.80;77.70;;;;;;5073171;28;20123;-60
2021/01/23 03:40:30;;;;;;;2.63;2.10;;;4.80;78.60;;;;;;5079730;28;20476;-60
2021/01/23 03:42:56;;;;;;;3.45;2.33;;;4.70;79.10;;;;;;5080289;28;20143;-59
2021/01/23 03:45:22;;;;;;;3.40;2.28;;;4.70;79.40;;;;;;5079951;28;20028;-60
2021/01/23 03:47:48;;;;;;;5.25;2.58;;;4.70;79.80;;;;;;5078824;28;20052;-60
2021/01/23 03:50:13;;;;;;;7.13;2.55;;;4.60;80.10;;;;;;5078171;28;20039;-60
2021/01/23 03:52:39;;;;;;;4.15;2.75;;;4.70;80.90;;;;;;5080014;28;20073;-60
2021/01/23 03:55:06;;;;;;;4.93;2.80;;;4.70;80.80;;;;;;5079716;28;20036;-59
2021/01/23 03:57:33;;;;;;;4.40;2.75;;;4.70;80.90;;;;;;5078774;28;20044;-60
2021/01/23 03:59:59;;;;;;;3.40;1.88;;;4.80;80.90;;;;;;5079239;28;20032;-60
2021/01/23 04:02:24;;;;;;;3.28;2.25;;;4.80;80.20;;;;;;5079413;28;20032;-60
2021/01/23 04:04:50;;;;;;;3.70;2.47;;;4.80;80.00;;;;;;5079830;28;20107;-60
2021/01/23 04:07:16;;;;;;;5.07;2.97;;;4.80;80.00;;;;;;5079531;28;20115;-59
2021/01/23 04:09:41;;;;;;;4.53;2.22;;;4.80;80.00;;;;;;5080248;28;20055;-60
2021/01/23 04:12:07;;;;;;;4.07;2.53;;;4.80;80.00;;;;;;5079673;28;20503;-59
2021/01/23 04:14:33;;;;;;;2.95;2.35;;;4.80;79.30;;;;;;5079219;28;20035;-59
2021/01/23 04:16:58;;;;;;;4.88;2.40;;;4.80;79.30;;;;;;5080001;28;20050;-60
2021/01/23 04:19:24;;;;;;;2.92;2.33;;;4.80;79.60;;;;;;5078897;28;20107;-59
2021/01/23 04:21:50;;;;;;;4.60;2.35;;;4.80;79.80;;;;;;5079945;28;20036;-60
2021/01/23 04:24:15;;;;;;;7.20;2.22;;;4.80;80.00;;;;;;5079640;28;20125;-59
2021/01/23 04:26:41;;;;;;;5.38;2.55;;;4.80;80.00;;;;;;5073527;28;20040;-60
2021/01/23 04:29:07;;;;;;;6.30;2.47;;;4.80;80.00;;;;;;5079568;28;20028;-60
2021/01/23 04:31:36;;;;;;;3.97;2.20;;;4.80;80.30;;;;;;5080123;28;20024;-60
2021/01/23 04:34:03;;;;;;;2.88;2.15;;;4.80;80.60;;;;;;5079439;28;20139;-61
2021/01/23 04:36:29;;;;;;;4.25;2.55;;;4.80;80.50;;;;;;5079568;28;20062;-60
2021/01/23 04:38:54;;;;;;;4.35;2.40;;;4.80;80.50;;;;;;5079806;28;20507;-60
2021/01/23 04:41:21;;;;;;;4.80;2.72;;;4.80;80.50;;;;;;5078484;28;20043;-62
2021/01/23 04:43:48;;;;;;;4.80;2.55;;;4.90;80.40;;;;;;5079500;28;20035;-60
2021/01/23 04:46:16;;;;;;;5.03;2.60;;;4.90;80.10;;;;;;5078139;28;20697;-59
2021/01/23 04:48:42;;;;;;;5.25;2.95;;;4.90;80.20;;;;;;5078935;28;20058;-60
2021/01/23 04:51:08;;;;;;;4.82;2.65;;;4.90;80.20;;;;;;5079332;28;20036;-60
2021/01/23 04:53:34;;;;;;;6.00;2.47;;;4.90;80.20;;;;;;5079226;28;20043;-60
2021/01/23 04:56:00;;;;;;;7.10;2.40;;;4.90;80.40;;;;;;5078504;28;20039;-60
2021/01/23 04:58:25;;;;;;;3.95;2.70;;;4.90;80.40;;;;;;5079145;28;20032;-60
2021/01/23 05:00:51;;;;;;;4.20;2.78;;;4.90;80.50;;;;;;5079631;28;20039;-60
2021/01/23 05:03:17;;;;;;;3.92;2.30;;;4.90;80.40;;;;;;5078547;28;20040;-60
2021/01/23 05:06:02;;;;;;;4.18;2.65;;;4.90;80.40;;;;;;5077762;28;20043;-60
2021/01/23 05:08:37;;;;;;;4.57;2.75;;;4.90;80.60;;;;;;5078543;28;20024;-60
2021/01/23 05:11:04;;;;;;;4.53;2.60;;;4.90;80.20;;;;;;5078420;28;20075;-60
2021/01/23 05:13:30;;;;;;;3.33;2.10;;;4.90;80.40;;;;;;5078778;28;20420;-60
2021/01/23 05:15:56;;;;;;;2.45;2.03;;;4.90;80.90;;;;;;5078613;28;20047;-60
2021/01/23 05:18:22;;;;;;;4.70;2.40;;;4.90;80.90;;;;;;5078317;28;20064;-60
2021/01/23 05:20:50;;;;;;;4.07;2.40;;;4.90;80.90;;;;;;5079157;28;20047;-60
2021/01/23 05:23:27;;;;;;;3.85;2.75;;;5.00;80.90;;;;;;5078645;28;20511;-60
2021/01/23 05:25:59;;;;;;;3.60;2.60;;;5.00;80.90;;;;;;5077518;28;20043;-60
2021/01/23 05:28:27;;;;;;;4.70;3.00;;;5.00;80.70;;;;;;5075874;28;20589;-60
2021/01/23 05:30:53;;;;;;;4.88;2.88;;;5.00;80.60;;;;;;5078391;28;20033;-59
2021/01/23 05:33:23;;;;;;;4.28;2.88;;;5.00;80.70;;;;;;5077873;28;20106;-59
2021/01/23 05:36:11;;;;;;;3.92;2.55;;;5.10;80.60;;;;;;5078079;28;20369;-60
2021/01/23 05:38:45;;;;;;;5.47;2.85;;;5.10;80.10;;;;;;5078283;28;20050;-60
2021/01/23 05:41:13;;;;;;;5.22;2.20;;;5.10;80.00;;;;;;5078076;28;20559;-60
2021/01/23 05:43:45;;;;;;;5.05;2.58;;;5.10;79.60;;;;;;5078082;28;20361;-60
2021/01/23 05:46:12;;;;;;;3.25;1.83;;;5.10;79.60;;;;;;5077430;28;20085;-60
2021/01/23 05:48:49;;;;;;;3.03;2.20;;;5.10;79.80;;;;;;5069382;28;20133;-63
2021/01/23 05:51:17;;;;;;;4.38;2.53;;;5.10;79.80;;;;;;5076549;28;20492;-62
2021/01/23 05:53:44;;;;;;;3.92;2.38;;;5.10;79.90;;;;;;5075080;28;20113;-62
2021/01/23 05:56:10;;;;;;;3.42;2.40;;;5.10;79.90;;;;;;5077776;28;20415;-61
2021/01/23 05:58:38;;;;;;;3.15;1.90;;;5.10;79.70;;;;;;5078315;28;20062;-62
2021/01/23 06:01:07;;;;;;;3.92;2.50;;;5.10;79.70;;;;;;5076348;28;20039;-62
2021/01/23 06:03:36;;;;;;;3.83;2.28;;;5.10;79.00;;;;;;5078148;28;20039;-62
2021/01/23 06:06:02;;;;;;;3.08;2.00;;;5.10;78.70;;;;;;5061047;28;20039;-63
2021/01/23 06:08:41;;;;;;;4.53;2.25;;;5.00;79.10;;;;;;5057565;28;20033;-62
2021/01/23 06:11:19;;;;;;;6.72;2.53;;;5.00;79.40;;;;;;5074176;28;20109;-62
2021/01/23 06:13:46;;;;;;;2.80;2.28;;;5.00;79.80;;;;;;5057768;28;20117;-61
2021/01/23 06:16:34;;;;;;;3.63;2.58;;;5.00;79.20;;;;;;5062603;28;20114;-63
2021/01/23 06:19:05;;;;;;;6.07;3.45;;;4.90;79.40;;;;;;5051815;28;20029;-62
2021/01/23 06:21:45;;;;;;;6.70;4.10;;;4.90;79.70;;;;;;5063879;28;20041;-62
2021/01/23 06:24:12;;;;;;;8.27;5.55;;;4.90;79.90;;;;;;5065080;28;20039;-62
2021/01/23 06:26:53;;;;;;;9.98;6.78;;;4.90;80.00;;;;;;5062381;28;20033;-62
2021/01/23 06:29:39;;;;;;;11.48;7.70;;;4.90;80.40;;;;;;5055108;28;20057;-61
2021/01/23 06:32:20;;;;;;;20.75;11.48;;;4.90;80.40;;;;;;5065663;28;20032;-62
2021/01/23 06:34:50;;;;;;;35.53;18.60;;;4.90;80.30;;;;;;5059815;28;20131;-62
2021/01/23 06:37:22;;;;;;;39.10;20.75;;;5.00;80.50;;;;;;5061014;28;20131;-62
2021/01/23 06:40:07;;;;;;;23.58;11.98;;;5.00;80.60;;;;;;5049957;28;20090;-60
2021/01/23 06:42:53;;;;;;;12.95;7.15;;;5.00;80.60;;;;;;5055223;28;20036;-60
2021/01/23 06:45:32;;;;;;;7.38;4.28;;;5.00;80.60;;;;;;5068816;28;20080;-61
2021/01/23 06:47:58;;;;;;;7.68;4.45;;;5.00;80.20;;;;;;5059067;28;20036;-60
2021/01/23 06:50:30;;;;;;;4.55;3.33;;;5.00;80.10;;;;;;5059929;28;20088;-60
2021/01/23 06:52:56;;;;;;;5.15;3.70;;;5.00;80.30;;;;;;5065471;28;20127;-60
2021/01/23 06:55:40;;;;;;;5.78;4.03;;;5.00;79.90;;;;;;5065437;28;20037;-60
2021/01/23 06:58:14;;;;;;;5.45;3.63;;;5.00;80.30;;;;;;5071519;28;20450;-60
2021/01/23 07:00:40;;;;;;;6.57;3.10;;;5.00;80.40;;;;;;5059229;28;20036;-59
2021/01/23 07:03:07;;;;;;;6.53;3.58;;;4.90;80.80;;;;;;5061280;28;20032;-59
2021/01/23 07:05:33;;;;;;;8.75;4.35;;;5.00;81.00;;;;;;5065324;28;20102;-60
2021/01/23 07:07:59;;;;;;;6.43;3.88;;;5.00;80.70;;;;;;5061941;28;20641;-60
2021/01/23 07:10:24;;;;;;;11.48;4.20;;;5.00;80.90;;;;;;5063480;28;20057;-60
2021/01/23 07:12:50;;;;;;;5.30;3.63;;;5.00;81.10;;;;;;5064712;28;20572;-60
2021/01/23 07:15:22;;;;;;;8.13;4.65;;;5.00;81.40;;;;;;5060945;28;20040;-60
2021/01/23 07:17:49;;;;;;;7.20;4.05;;;5.00;81.70;;;;;;5048775;28;20032;-60
2021/01/23 07:20:19;;;;;;;6.80;4.10;;;5.00;81.70;;;;;;5064771;28;20094;-60
2021/01/23 07:22:46;;;;;;;11.65;5.63;;;5.00;81.80;;;;;;5056289;28;20031;-60
2021/01/23 07:25:14;;;;;;;8.93;4.85;;;5.00;81.90;;;;;;5058112;28;20050;-60
2021/01/23 07:27:41;;;;;;;10.73;5.25;;;5.00;81.60;;;;;;5062877;28;20033;-60
2021/01/23 07:30:17;;;;;;;7.07;4.25;;;5.00;80.80;;;;;;5067308;28;20032;-60
2021/01/23 07:32:44;;;;;;;6.72;4.18;;;4.90;80.80;;;;;;5062156;28;20121;-60
2021/01/23 07:35:11;;;;;;;8.98;5.50;;;4.90;81.40;;;;;;5057960;28;20086;-60
2021/01/23 07:37:48;;;;;;;8.02;4.68;;;4.90;81.40;;;;;;5064928;28;20118;-60
2021/01/23 07:40:15;;;;;;;12.25;6.18;;;4.90;81.80;;;;;;5061980;28;20040;-60
2021/01/23 07:42:41;;;;;;;14.20;7.38;;;5.00;82.10;;;;;;5044541;28;20102;-60
2021/01/23 07:45:12;;;;;;;16.73;7.95;;;4.90;82.30;;;;;;5067952;28;20036;-60
2021/01/23 07:47:38;;;;;;;17.58;7.50;;;5.00;82.30;;;;;;5058490;28;20123;-60
2021/01/23 07:50:10;;;;;;;15.55;7.40;;;5.00;82.50;;;;;;5072401;28;20085;-59
2021/01/23 07:52:36;;;;;;;13.27;6.57;;;5.00;82.60;;;;;;5067362;28;20032;-60
2021/01/23 07:55:03;;;;;;;13.13;6.45;;;5.00;83.00;;;;;;5060092;28;20143;-62
2021/01/23 07:57:29;;;;;;;9.88;5.78;;;5.00;83.00;;;;;;5066731;28;20063;-60
2021/01/23 07:59:54;;;;;;;11.35;6.25;;;5.10;83.00;;;;;;5057663;28;20173;-60
2021/01/23 08:02:20;;;;;;;10.00;6.18;;;5.10;83.10;;;;;;5066170;28;20040;-60
2021/01/23 08:04:50;;;;;;;10.07;5.78;;;5.10;83.00;;;;;;5072632;28;20663;-60
2021/01/23 08:07:19;;;;;;;8.95;5.90;;;5.10;83.30;;;;;;5060248;28;20028;-59
2021/01/23 08:09:45;;;;;;;12.82;7.20;;;5.10;83.10;;;;;;5074454;28;20621;-60
2021/01/23 08:12:18;;;;;;;13.43;6.97;;;5.10;83.60;;;;;;5068490;28;20032;-60
2021/01/23 08:14:55;;;;;;;13.40;5.82;;;5.20;82.80;;;;;;5070680;28;20082;-60
2021/01/23 08:17:38;;;;;;;13.35;7.60;;;5.20;83.10;;;;;;5061153;28;20032;-60
2021/01/23 08:20:15;;;;;;;9.07;5.90;;;5.20;83.30;;;;;;5034420;28;20033;-60
2021/01/23 08:22:58;;;;;;;13.40;6.47;;;5.20;83.40;;;;;;5060530;28;20813;-60
2021/01/23 08:25:29;;;;;;;9.48;5.85;;;5.30;83.50;;;;;;5076409;28;20055;-62
2021/01/23 08:27:56;;;;;;;11.48;6.35;;;5.30;83.80;;;;;;5079635;28;20059;-67
2021/01/23 08:30:23;;;;;;;12.70;6.80;;;5.40;83.40;;;;;;5066446;28;20069;-61
2021/01/23 08:32:50;;;;;;;10.68;6.70;;;5.50;83.40;;;;;;5063957;28;20591;-60
2021/01/23 08:35:17;;;;;;;13.07;7.70;;;5.70;82.40;;;;;;5068615;28;20421;-60
2021/01/23 08:37:44;;;;;;;10.70;6.63;;;5.80;81.50;;;;;;5073971;28;20432;-60
2021/01/23 08:40:10;;;;;;;11.90;7.55;;;5.80;80.80;;;;;;5057531;28;20041;-60
2021/01/23 08:42:36;;;;;;;14.77;7.15;;;5.80;80.90;;;;;;5064669;28;20115;-60
2021/01/23 08:45:04;;;;;;;11.70;7.32;;;5.80;80.80;;;;;;5061317;28;20844;-60
2021/01/23 08:47:30;;;;;;;12.82;6.85;;;5.80;81.10;;;;;;5059379;28;20040;-60
2021/01/23 08:49:56;;;;;;;11.32;7.00;;;5.80;81.20;;;;;;5066842;28;20036;-60
2021/01/23 08:52:21;;;;;;;13.48;7.65;;;5.70;81.40;;;;;;5062188;28;20960;-61
2021/01/23 08:54:47;;;;;;;11.48;7.00;;;5.70;81.60;;;;;;5067997;28;20044;-60
2021/01/23 08:57:13;;;;;;;11.98;7.72;;;5.70;81.50;;;;;;5060197;28;20503;-62
2021/01/23 08:59:38;;;;;;;16.52;8.15;;;5.70;81.90;;;;;;5066665;28;20032;-60
2021/01/23 09:02:04;;;;;;;12.10;7.25;;;5.70;81.30;;;;;;5068979;28;20032;-60
2021/01/23 09:04:30;;;;;;;14.90;7.03;;;5.70;81.60;;;;;;5057237;28;20040;-59
2021/01/23 09:06:56;;;;;;;13.43;8.10;;;5.70;81.70;;;;;;5065549;28;20040;-60
2021/01/23 09:09:23;;;;;;;12.02;7.63;;;5.60;81.40;;;;;;5064759;28;20548;-60
2021/01/23 09:11:49;;;;;;;14.02;8.07;;;5.60;81.90;;;;;;5059200;28;20029;-60
2021/01/23 09:14:15;;;;;;;14.70;8.82;;;5.60;82.10;;;;;;5066157;28;20040;-60
2021/01/23 09:16:41;;;;;;;15.10;7.55;;;5.60;81.90;;;;;;5059684;28;20059;-60
2021/01/23 09:19:08;;;;;;;11.65;7.97;;;5.60;82.50;;;;;;5074791;28;20039;-60
2021/01/23 09:21:33;;;;;;;11.57;7.40;;;5.60;82.50;;;;;;5066817;28;20028;-60
2021/01/23 09:23:59;;;;;;;17.73;8.85;;;5.60;82.50;;;;;;5067102;28;20043;-61
2021/01/23 09:26:25;;;;;;;13.90;8.15;;;5.70;82.50;;;;;;5061375;28;20068;-60
2021/01/23 09:28:50;;;;;;;16.27;9.40;;;5.70;82.40;;;;;;5064808;28;20020;-60
2021/01/23 09:31:16;;;;;;;14.52;8.77;;;5.60;82.60;;;;;;5067444;28;20567;-60
2021/01/23 09:33:42;;;;;;;19.88;9.85;;;5.60;82.80;;;;;;5042139;28;20046;-60
2021/01/23 09:36:08;;;;;;;15.48;9.30;;;5.60;82.80;;;;;;5062350;28;20115;-61
2021/01/23 09:38:34;;;;;;;17.05;10.40;;;5.70;82.60;;;;;;5062815;28;20037;-60
2021/01/23 09:40:59;;;;;;;14.75;9.40;;;5.70;82.70;;;;;;5063483;28;20051;-61
2021/01/23 09:43:25;;;;;;;14.85;9.25;;;5.70;82.80;;;;;;5062624;28;20068;-60
2021/01/23 09:45:51;;;;;;;15.38;9.45;;;5.70;82.80;;;;;;5071556;28;20567;-60
2021/01/23 09:48:19;;;;;;;20.25;11.25;;;5.70;83.00;;;;;;5052233;28;20766;-61
2021/01/23 09:50:45;;;;;;;16.00;8.82;;;5.70;83.10;;;;;;5068530;28;20492;-60
2021/01/23 09:53:11;;;;;;;19.98;9.57;;;5.60;83.20;;;;;;5065751;28;20045;-60
2021/01/23 09:55:37;;;;;;;15.48;8.98;;;5.70;83.00;;;;;;5061604;28;20082;-61
2021/01/23 09:58:03;;;;;;;15.18;8.90;;;5.70;83.20;;;;;;5060795;28;20066;-60
2021/01/23 10:00:28;;;;;;;16.45;9.27;;;5.70;83.20;;;;;;5065311;28;20032;-61
2021/01/23 10:02:54;;;;;;;15.95;9.75;;;5.70;82.80;;;;;;5057213;28;20097;-61
2021/01/23 10:05:20;;;;;;;16.90;10.02;;;5.70;83.00;;;;;;5064817;28;20537;-60
2021/01/23 10:07:45;;;;;;;20.42;10.98;;;5.70;82.80;;;;;;5060450;28;20056;-60
2021/01/23 10:10:11;;;;;;;18.13;11.07;;;5.80;82.70;;;;;;5062743;28;20131;-61
2021/01/23 10:12:37;;;;;;;17.65;9.27;;;5.70;82.40;;;;;;5059168;28;20096;-61
2021/01/23 10:15:03;;;;;;;15.77;8.30;;;5.70;82.70;;;;;;5057095;28;20484;-60
2021/01/23 10:17:29;;;;;;;19.15;10.50;;;5.70;82.80;;;;;;5065780;28;20405;-60
2021/01/23 10:19:55;;;;;;;18.35;11.02;;;5.80;82.60;;;;;;5065822;28;20035;-60
2021/01/23 10:22:20;;;;;;;24.90;12.85;;;5.80;82.50;;;;;;5062497;28;20847;-60
2021/01/23 10:24:46;;;;;;;20.52;11.63;;;5.80;81.60;;;;;;5065937;28;20556;-60
2021/01/23 10:27:12;;;;;;;20.30;12.10;;;5.80;82.20;;;;;;5067504;28;20537;-60
2021/01/23 10:29:38;;;;;;;19.17;11.80;;;5.80;82.60;;;;;;5070807;28;20024;-60
2021/01/23 10:32:04;;;;;;;21.67;12.57;;;5.80;82.80;;;;;;5068659;28;20551;-60
2021/01/23 10:34:30;;;;;;;22.20;13.18;;;5.80;82.70;;;;;;5066754;28;20032;-60
2021/01/23 10:36:55;;;;;;;17.95;11.80;;;5.90;82.60;;;;;;5061220;28;20032;-60
2021/01/23 10:39:21;;;;;;;21.48;12.15;;;5.90;82.70;;;;;;5059640;28;20116;-60
2021/01/23 10:41:46;;;;;;;20.55;10.95;;;5.90;82.90;;;;;;5060209;28;20209;-62
2021/01/23 10:44:12;;;;;;;22.85;12.55;;;5.90;82.80;;;;;;5062145;28;20024;-62
2021/01/23 10:46:38;;;;;;;19.85;12.93;;;5.90;82.70;;;;;;5068882;28;20116;-62
2021/01/23 10:49:05;;;;;;;20.23;11.52;;;5.90;82.70;;;;;;5073542;28;20107;-61
2021/01/23 10:51:31;;;;;;;21.50;12.40;;;5.90;82.80;;;;;;5067424;28;20036;-63
2021/01/23 10:53:56;;;;;;;24.92;12.50;;;6.00;83.00;;;;;;5058305;28;20055;-62
2021/01/23 10:56:22;;;;;;;21.75;11.52;;;6.00;82.60;;;;;;5060171;28;20846;-61
2021/01/23 10:58:48;;;;;;;18.60;12.32;;;6.00;82.40;;;;;;5064410;28;20085;-62
2021/01/23 11:01:13;;;;;;;21.52;11.98;;;6.00;82.20;;;;;;5059030;28;20036;-61
2021/01/23 11:03:39;;;;;;;23.27;11.98;;;6.00;82.50;;;;;;5055820;28;20047;-62
2021/01/23 11:06:05;;;;;;;21.13;10.98;;;6.00;82.30;;;;;;5069536;28;20863;-62
2021/01/23 11:08:31;;;;;;;16.92;10.73;;;6.00;82.70;;;;;;5065295;28;20756;-62
2021/01/23 11:10:57;;;;;;;20.77;11.88;;;6.10;82.70;;;;;;5052501;28;20037;-62
2021/01/23 11:13:24;;;;;;;24.73;13.20;;;6.10;82.70;;;;;;5057527;28;20028;-68
2021/01/23 11:15:49;;;;;;;26.67;12.05;;;6.20;82.00;;;;;;5066293;28;20118;-62
2021/01/23 11:18:15;;;;;;;25.48;12.82;;;6.20;82.10;;;;;;5056375;28;20127;-71
2021/01/23 11:20:41;;;;;;;21.63;13.00;;;6.10;82.00;;;;;;5067747;28;20036;-61
2021/01/23 11:23:07;;;;;;;26.52;14.23;;;6.20;82.40;;;;;;5063291;28;20036;-62
2021/01/23 11:25:32;;;;;;;21.42;11.85;;;6.20;82.30;;;;;;5064271;28;20056;-61
2021/01/23 11:27:58;;;;;;;19.90;12.63;;;6.10;81.10;;;;;;5064563;28;20457;-76
2021/01/23 11:30:25;;;;;;;20.85;12.90;;;6.10;82.10;;;;;;5060447;28;20070;-60
2021/01/23 11:32:51;;;;;;;22.02;12.65;;;6.10;82.20;;;;;;5055983;28;20041;-60
2021/01/23 11:35:17;;;;;;;22.85;12.80;;;6.20;82.30;;;;;;5066715;28;20031;-60
2021/01/23 11:37:43;;;;;;;22.00;12.85;;;6.20;82.80;;;;;;5056807;28;20428;-60
2021/01/23 11:40:09;;;;;;;30.48;16.10;;;6.30;81.40;;;;;;5058926;28;20041;-61
2021/01/23 11:42:35;;;;;;;40.08;17.98;;;6.30;81.30;;;;;;5068357;28;20102;-63
2021/01/23 11:45:03;;;;;;;36.53;17.75;;;6.30;81.20;;;;;;5058655;28;20773;-62
2021/01/23 11:47:29;;;;;;;29.42;15.38;;;6.30;81.00;;;;;;5067952;28;20044;-63
2021/01/23 11:49:54;;;;;;;27.88;15.45;;;6.30;80.90;;;;;;5048351;28;20043;-64
2021/01/23 11:52:20;;;;;;;25.30;14.38;;;6.30;81.00;;;;;;5062275;28;20036;-63
2021/01/23 11:54:47;;;;;;;24.50;14.95;;;6.30;81.20;;;;;;5066267;28;20032;-63
2021/01/23 11:57:13;;;;;;;27.90;14.20;;;6.30;81.20;;;;;;5067555;28;20035;-63
2021/01/23 11:59:40;;;;;;;23.23;13.02;;;6.30;81.20;;;;;;5057654;28;20032;-63
2021/01/23 12:02:06;;;;;;;24.95;13.27;;;6.30;81.20;;;;;;5058651;28;20404;-63
2021/01/23 12:04:31;;;;;;;23.10;13.40;;;6.30;81.10;;;;;;5071819;28;20037;-60
2021/01/23 12:06:58;;;;;;;20.33;12.25;;;6.30;80.80;;;;;;5074200;28;20029;-62
2021/01/23 12:09:24;;;;;;;23.33;13.52;;;6.30;81.40;;;;;;5061978;28;20032;-61
2021/01/23 12:11:50;;;;;;;24.90;13.45;;;6.40;81.10;;;;;;5058433;28;20137;-60
2021/01/23 12:14:16;;;;;;;26.92;14.50;;;6.40;81.20;;;;;;5058795;28;20143;-60
2021/01/23 12:16:42;;;;;;;23.85;12.93;;;6.40;81.10;;;;;;5058334;28;20094;-61
2021/01/23 12:19:08;;;;;;;24.35;13.77;;;6.40;81.30;;;;;;5069630;28;20036;-65
2021/01/23 12:21:34;;;;;;;30.80;13.27;;;6.40;81.00;;;;;;5063433;28;20037;-62
2021/01/23 12:23:59;;;;;;;27.23;14.27;;;6.70;82.60;;;;;;5058442;28;20040;-62
2021/01/23 12:26:25;;;;;;;23.10;12.65;;;7.10;79.60;;;;;;5067871;28;20044;-62
2021/01/23 12:28:52;;;;;;;24.17;14.40;;;7.40;77.80;;;;;;5053394;28;20036;-62
2021/01/23 12:31:17;;;;;;;23.05;12.02;;;7.70;77.00;;;;;;5056597;28;20032;-64
2021/01/23 12:33:43;;;;;;;20.83;12.27;;;8.00;74.60;;;;;;5069424;28;20105;-64
2021/01/23 12:36:09;;;;;;;18.73;10.10;;;8.20;74.70;;;;;;5059159;28;20549;-64
2021/01/23 12:38:35;;;;;;;19.45;10.18;;;8.40;72.40;;;;;;5062086;28;20777;-65
2021/01/23 12:41:00;;;;;;;16.77;10.55;;;8.60;72.90;;;;;;5053605;28;20032;-64
2021/01/23 12:43:26;;;;;;;15.90;9.20;;;8.70;71.70;;;;;;5065583;28;20035;-63
2021/01/23 12:45:52;;;;;;;15.80;9.10;;;8.70;71.10;;;;;;5059773;28;20128;-64
2021/01/23 12:48:17;;;;;;;20.00;9.93;;;8.50;71.90;;;;;;5054527;28;20028;-63
2021/01/23 12:50:43;;;;;;;21.80;10.75;;;8.40;72.60;;;;;;5064652;28;20032;-64
2021/01/23 12:53:09;;;;;;;14.07;9.48;;;8.10;72.70;;;;;;5058897;28;20032;-63